sensor_id;sensor_type;location;lat;lon;timestamp;P1;durP1;ratioP1;P2;durP2;ratioP2
77880;SDS011;67077;50.298;18.996;2023-08-17T00:00:43;12.70;;;9.90;;
77880;SDS011;67077;50.298;18.996;2023-08-17T00:03:34;13.50;;;9.80;;
77880;SDS011;67077;50.298;18.996;2023-08-17T00:06:05;17.30;;;9.70;;
77880;SDS011;67077;50.298;18.996;2023-08-17T00:08:33;13.90;;;9.60;;
77880;SDS011;67077;50.298;18.996;2023-08-17T00:11:00;13.90;;;9.80;;
77880;SDS011;67077;50.298;18.996;2023-08-17T00:13:28;12.80;;;9.60;;
77880;SDS011;67077;50.298;18.996;2023-08-17T00:15:56;11.80;;;9.60;;
77880;SDS011;67077;50.298;18.996;2023-08-17T00:18:25;17.60;;;9.30;;
77880;SDS011;67077;50.298;18.996;2023-08-17T00:20:53;12.60;;;9.40;;
77880;SDS011;67077;50.298;18.996;2023-08-17T00:23:22;10.80;;;8.20;;
77880;SDS011;67077;50.298;18.996;2023-08-17T00:25:51;16.40;;;9.60;;
77880;SDS011;67077;50.298;18.996;2023-08-17T00:28:20;14.10;;;9.30;;
77880;SDS011;67077;50.298;18.996;2023-08-17T00:30:52;16.50;;;9.40;;
77880;SDS011;67077;50.298;18.996;2023-08-17T00:33:22;15.00;;;10.30;;
77880;SDS011;67077;50.298;18.996;2023-08-17T00:35:51;16.70;;;9.90;;
77880;SDS011;67077;50.298;18.996;2023-08-17T00:38:20;15.80;;;9.80;;
77880;SDS011;67077;50.298;18.996;2023-08-17T00:40:48;15.10;;;9.30;;
77880;SDS011;67077;50.298;18.996;2023-08-17T00:43:16;13.20;;;9.70;;
77880;SDS011;67077;50.298;18.996;2023-08-17T00:45:45;15.20;;;9.60;;
77880;SDS011;67077;50.298;18.996;2023-08-17T00:48:15;14.00;;;9.70;;
77880;SDS011;67077;50.298;18.996;2023-08-17T00:50:44;15.90;;;9.50;;
77880;SDS011;67077;50.298;18.996;2023-08-17T00:53:15;12.90;;;9.40;;
77880;SDS011;67077;50.298;18.996;2023-08-17T00:55:44;13.80;;;9.50;;
77880;SDS011;67077;50.298;18.996;2023-08-17T00:58:13;11.60;;;8.30;;
77880;SDS011;67077;50.298;18.996;2023-08-17T01:00:43;13.00;;;9.40;;
77880;SDS011;67077;50.298;18.996;2023-08-17T01:03:11;14.60;;;9.80;;
77880;SDS011;67077;50.298;18.996;2023-08-17T01:05:40;15.80;;;9.40;;
77880;SDS011;67077;50.298;18.996;2023-08-17T01:08:08;13.00;;;9.50;;
77880;SDS011;67077;50.298;18.996;2023-08-17T01:11:20;18.70;;;9.90;;
77880;SDS011;67077;50.298;18.996;2023-08-17T01:16:48;12.90;;;9.40;;
77880;SDS011;67077;50.298;18.996;2023-08-17T01:19:24;12.60;;;8.70;;
77880;SDS011;67077;50.298;18.996;2023-08-17T01:22:00;11.90;;;9.00;;
77880;SDS011;67077;50.298;18.996;2023-08-17T01:24:31;13.80;;;9.50;;
77880;SDS011;67077;50.298;18.996;2023-08-17T01:27:00;12.50;;;8.60;;
77880;SDS011;67077;50.298;18.996;2023-08-17T01:29:27;15.50;;;9.20;;
77880;SDS011;67077;50.298;18.996;2023-08-17T01:34:29;11.00;;;8.70;;
77880;SDS011;67077;50.298;18.996;2023-08-17T01:37:04;14.40;;;8.90;;
77880;SDS011;67077;50.298;18.996;2023-08-17T01:39:37;14.20;;;8.90;;
77880;SDS011;67077;50.298;18.996;2023-08-17T01:44:35;12.90;;;8.50;;
77880;SDS011;67077;50.298;18.996;2023-08-17T01:47:03;11.70;;;8.70;;
77880;SDS011;67077;50.298;18.996;2023-08-17T01:49:31;14.10;;;9.00;;
77880;SDS011;67077;50.298;18.996;2023-08-17T01:51:59;12.20;;;8.40;;
77880;SDS011;67077;50.298;18.996;2023-08-17T01:54:28;12.30;;;8.80;;
77880;SDS011;67077;50.298;18.996;2023-08-17T01:56:56;12.70;;;8.60;;
77880;SDS011;67077;50.298;18.996;2023-08-17T01:59:24;13.20;;;8.50;;
77880;SDS011;67077;50.298;18.996;2023-08-17T02:01:52;15.50;;;8.80;;
77880;SDS011;67077;50.298;18.996;2023-08-17T02:04:20;13.80;;;8.50;;
77880;SDS011;67077;50.298;18.996;2023-08-17T02:06:48;11.10;;;8.50;;
77880;SDS011;67077;50.298;18.996;2023-08-17T02:09:16;12.90;;;8.90;;
77880;SDS011;67077;50.298;18.996;2023-08-17T02:11:43;12.80;;;8.40;;
77880;SDS011;67077;50.298;18.996;2023-08-17T02:14:11;16.90;;;8.60;;
77880;SDS011;67077;50.298;18.996;2023-08-17T02:16:39;12.90;;;8.80;;
77880;SDS011;67077;50.298;18.996;2023-08-17T02:19:07;13.50;;;8.50;;
77880;SDS011;67077;50.298;18.996;2023-08-17T02:21:35;12.80;;;8.00;;
77880;SDS011;67077;50.298;18.996;2023-08-17T02:24:03;12.70;;;8.50;;
77880;SDS011;67077;50.298;18.996;2023-08-17T02:26:31;12.70;;;8.90;;
77880;SDS011;67077;50.298;18.996;2023-08-17T02:28:59;14.30;;;8.80;;
77880;SDS011;67077;50.298;18.996;2023-08-17T02:31:27;13.60;;;8.60;;
77880;SDS011;67077;50.298;18.996;2023-08-17T02:33:55;11.30;;;8.70;;
77880;SDS011;67077;50.298;18.996;2023-08-17T02:36:29;11.20;;;8.70;;
77880;SDS011;67077;50.298;18.996;2023-08-17T02:38:57;11.20;;;8.10;;
77880;SDS011;67077;50.298;18.996;2023-08-17T02:41:25;11.10;;;8.20;;
77880;SDS011;67077;50.298;18.996;2023-08-17T02:43:53;10.80;;;8.00;;
77880;SDS011;67077;50.298;18.996;2023-08-17T02:46:21;12.30;;;8.10;;
77880;SDS011;67077;50.298;18.996;2023-08-17T02:48:49;11.90;;;8.50;;
77880;SDS011;67077;50.298;18.996;2023-08-17T02:51:18;15.00;;;8.50;;
77880;SDS011;67077;50.298;18.996;2023-08-17T02:53:46;17.40;;;9.20;;
77880;SDS011;67077;50.298;18.996;2023-08-17T02:56:14;12.30;;;8.80;;
77880;SDS011;67077;50.298;18.996;2023-08-17T02:58:41;12.70;;;9.30;;
77880;SDS011;67077;50.298;18.996;2023-08-17T03:01:09;12.80;;;9.10;;
77880;SDS011;67077;50.298;18.996;2023-08-17T03:03:37;12.00;;;9.20;;
77880;SDS011;67077;50.298;18.996;2023-08-17T03:06:06;12.00;;;9.20;;
77880;SDS011;67077;50.298;18.996;2023-08-17T03:08:34;12.30;;;8.90;;
77880;SDS011;67077;50.298;18.996;2023-08-17T03:11:02;13.20;;;9.20;;
77880;SDS011;67077;50.298;18.996;2023-08-17T03:13:29;12.30;;;9.30;;
77880;SDS011;67077;50.298;18.996;2023-08-17T03:15:57;14.80;;;9.70;;
77880;SDS011;67077;50.298;18.996;2023-08-17T03:18:25;15.80;;;10.40;;
77880;SDS011;67077;50.298;18.996;2023-08-17T03:20:53;15.50;;;10.40;;
77880;SDS011;67077;50.298;18.996;2023-08-17T03:23:21;13.40;;;10.90;;
77880;SDS011;67077;50.298;18.996;2023-08-17T03:25:52;13.70;;;10.40;;
77880;SDS011;67077;50.298;18.996;2023-08-17T03:28:21;14.20;;;10.70;;
77880;SDS011;67077;50.298;18.996;2023-08-17T03:30:50;16.50;;;11.00;;
77880;SDS011;67077;50.298;18.996;2023-08-17T03:33:18;14.80;;;11.10;;
77880;SDS011;67077;50.298;18.996;2023-08-17T03:35:45;14.70;;;10.60;;
77880;SDS011;67077;50.298;18.996;2023-08-17T03:38:13;15.30;;;11.60;;
77880;SDS011;67077;50.298;18.996;2023-08-17T03:40:42;14.30;;;11.30;;
77880;SDS011;67077;50.298;18.996;2023-08-17T03:43:11;19.20;;;12.20;;
77880;SDS011;67077;50.298;18.996;2023-08-17T03:45:40;15.90;;;11.50;;
77880;SDS011;67077;50.298;18.996;2023-08-17T03:48:09;17.80;;;12.90;;
77880;SDS011;67077;50.298;18.996;2023-08-17T03:50:37;16.70;;;12.30;;
77880;SDS011;67077;50.298;18.996;2023-08-17T03:53:05;22.30;;;15.60;;
77880;SDS011;67077;50.298;18.996;2023-08-17T03:55:33;19.90;;;15.90;;
77880;SDS011;67077;50.298;18.996;2023-08-17T03:58:01;25.50;;;16.70;;
77880;SDS011;67077;50.298;18.996;2023-08-17T04:00:30;22.10;;;16.70;;
77880;SDS011;67077;50.298;18.996;2023-08-17T04:02:58;26.10;;;17.30;;
77880;SDS011;67077;50.298;18.996;2023-08-17T04:05:27;21.70;;;16.50;;
77880;SDS011;67077;50.298;18.996;2023-08-17T04:07:55;27.20;;;18.10;;
77880;SDS011;67077;50.298;18.996;2023-08-17T04:10:23;23.50;;;17.00;;
77880;SDS011;67077;50.298;18.996;2023-08-17T04:12:51;22.40;;;17.00;;
77880;SDS011;67077;50.298;18.996;2023-08-17T04:15:19;28.60;;;16.90;;
77880;SDS011;67077;50.298;18.996;2023-08-17T04:17:47;24.70;;;15.90;;
77880;SDS011;67077;50.298;18.996;2023-08-17T04:20:15;21.00;;;15.40;;
77880;SDS011;67077;50.298;18.996;2023-08-17T04:22:45;24.00;;;15.30;;
77880;SDS011;67077;50.298;18.996;2023-08-17T04:25:13;21.20;;;13.40;;
77880;SDS011;67077;50.298;18.996;2023-08-17T04:27:41;24.00;;;15.10;;
77880;SDS011;67077;50.298;18.996;2023-08-17T04:30:09;27.90;;;16.90;;
77880;SDS011;67077;50.298;18.996;2023-08-17T04:32:38;24.20;;;15.00;;
77880;SDS011;67077;50.298;18.996;2023-08-17T04:35:06;26.00;;;14.10;;
77880;SDS011;67077;50.298;18.996;2023-08-17T04:37:34;23.40;;;13.90;;
77880;SDS011;67077;50.298;18.996;2023-08-17T04:40:02;26.20;;;14.70;;
77880;SDS011;67077;50.298;18.996;2023-08-17T04:42:30;25.50;;;15.40;;
77880;SDS011;67077;50.298;18.996;2023-08-17T04:44:58;24.70;;;15.80;;
77880;SDS011;67077;50.298;18.996;2023-08-17T04:47:26;23.90;;;14.30;;
77880;SDS011;67077;50.298;18.996;2023-08-17T04:49:57;18.20;;;14.10;;
77880;SDS011;67077;50.298;18.996;2023-08-17T04:52:25;19.10;;;13.30;;
77880;SDS011;67077;50.298;18.996;2023-08-17T04:54:52;18.20;;;13.90;;
77880;SDS011;67077;50.298;18.996;2023-08-17T04:57:20;18.80;;;12.40;;
77880;SDS011;67077;50.298;18.996;2023-08-17T04:59:48;18.00;;;12.00;;
77880;SDS011;67077;50.298;18.996;2023-08-17T05:02:16;15.40;;;11.20;;
77880;SDS011;67077;50.298;18.996;2023-08-17T05:04:46;15.00;;;11.40;;
77880;SDS011;67077;50.298;18.996;2023-08-17T05:07:14;19.70;;;12.50;;
77880;SDS011;67077;50.298;18.996;2023-08-17T05:09:42;22.40;;;12.50;;
77880;SDS011;67077;50.298;18.996;2023-08-17T05:12:10;26.90;;;12.30;;
77880;SDS011;67077;50.298;18.996;2023-08-17T05:14:38;20.70;;;11.80;;
77880;SDS011;67077;50.298;18.996;2023-08-17T05:17:06;19.60;;;12.00;;
77880;SDS011;67077;50.298;18.996;2023-08-17T05:19:34;17.50;;;11.50;;
77880;SDS011;67077;50.298;18.996;2023-08-17T05:22:03;24.90;;;12.70;;
77880;SDS011;67077;50.298;18.996;2023-08-17T05:24:32;20.20;;;12.20;;
77880;SDS011;67077;50.298;18.996;2023-08-17T05:27:00;13.50;;;10.30;;
77880;SDS011;67077;50.298;18.996;2023-08-17T05:29:28;21.90;;;12.40;;
77880;SDS011;67077;50.298;18.996;2023-08-17T05:31:56;21.40;;;11.50;;
77880;SDS011;67077;50.298;18.996;2023-08-17T05:34:25;18.40;;;11.50;;
77880;SDS011;67077;50.298;18.996;2023-08-17T05:36:53;23.10;;;12.30;;
77880;SDS011;67077;50.298;18.996;2023-08-17T05:39:21;19.10;;;12.60;;
77880;SDS011;67077;50.298;18.996;2023-08-17T05:41:49;19.40;;;12.30;;
77880;SDS011;67077;50.298;18.996;2023-08-17T05:44:17;18.00;;;11.70;;
77880;SDS011;67077;50.298;18.996;2023-08-17T05:46:45;15.50;;;10.60;;
77880;SDS011;67077;50.298;18.996;2023-08-17T05:49:13;20.60;;;12.60;;
77880;SDS011;67077;50.298;18.996;2023-08-17T05:51:41;22.10;;;13.60;;
77880;SDS011;67077;50.298;18.996;2023-08-17T05:54:10;21.70;;;13.00;;
77880;SDS011;67077;50.298;18.996;2023-08-17T05:56:39;21.40;;;12.70;;
77880;SDS011;67077;50.298;18.996;2023-08-17T05:59:12;21.40;;;12.80;;
77880;SDS011;67077;50.298;18.996;2023-08-17T06:01:41;33.40;;;14.20;;
77880;SDS011;67077;50.298;18.996;2023-08-17T06:04:09;18.70;;;13.10;;
77880;SDS011;67077;50.298;18.996;2023-08-17T06:06:37;23.90;;;13.70;;
77880;SDS011;67077;50.298;18.996;2023-08-17T06:09:06;22.90;;;13.30;;
77880;SDS011;67077;50.298;18.996;2023-08-17T06:11:37;15.40;;;11.80;;
77880;SDS011;67077;50.298;18.996;2023-08-17T06:14:07;15.10;;;11.40;;
77880;SDS011;67077;50.298;18.996;2023-08-17T06:16:36;26.80;;;13.60;;
77880;SDS011;67077;50.298;18.996;2023-08-17T06:19:05;19.00;;;13.10;;
77880;SDS011;67077;50.298;18.996;2023-08-17T06:21:34;32.70;;;14.80;;
77880;SDS011;67077;50.298;18.996;2023-08-17T06:24:02;21.70;;;14.20;;
77880;SDS011;67077;50.298;18.996;2023-08-17T06:26:32;24.10;;;14.10;;
77880;SDS011;67077;50.298;18.996;2023-08-17T06:29:01;29.10;;;14.50;;
77880;SDS011;67077;50.298;18.996;2023-08-17T06:31:31;19.40;;;13.80;;
77880;SDS011;67077;50.298;18.996;2023-08-17T06:33:59;21.10;;;15.00;;
77880;SDS011;67077;50.298;18.996;2023-08-17T06:36:31;26.10;;;14.30;;
77880;SDS011;67077;50.298;18.996;2023-08-17T06:39:00;15.30;;;10.60;;
77880;SDS011;67077;50.298;18.996;2023-08-17T06:41:28;21.90;;;14.50;;
77880;SDS011;67077;50.298;18.996;2023-08-17T06:43:56;22.40;;;13.30;;
77880;SDS011;67077;50.298;18.996;2023-08-17T06:46:24;21.70;;;13.40;;
77880;SDS011;67077;50.298;18.996;2023-08-17T06:49:02;19.40;;;13.20;;
77880;SDS011;67077;50.298;18.996;2023-08-17T06:51:41;22.40;;;14.80;;
77880;SDS011;67077;50.298;18.996;2023-08-17T06:54:10;23.40;;;13.90;;
77880;SDS011;67077;50.298;18.996;2023-08-17T06:56:38;15.90;;;13.60;;
77880;SDS011;67077;50.298;18.996;2023-08-17T06:59:06;20.10;;;13.80;;
77880;SDS011;67077;50.298;18.996;2023-08-17T07:01:34;18.00;;;13.50;;
77880;SDS011;67077;50.298;18.996;2023-08-17T07:04:02;20.20;;;13.80;;
77880;SDS011;67077;50.298;18.996;2023-08-17T07:06:31;21.90;;;14.30;;
77880;SDS011;67077;50.298;18.996;2023-08-17T07:08:59;23.80;;;14.80;;
77880;SDS011;67077;50.298;18.996;2023-08-17T07:11:27;27.90;;;14.90;;
77880;SDS011;67077;50.298;18.996;2023-08-17T07:13:55;25.70;;;15.00;;
77880;SDS011;67077;50.298;18.996;2023-08-17T07:16:24;20.20;;;12.70;;
77880;SDS011;67077;50.298;18.996;2023-08-17T07:18:52;25.50;;;15.10;;
77880;SDS011;67077;50.298;18.996;2023-08-17T07:21:20;28.00;;;16.00;;
77880;SDS011;67077;50.298;18.996;2023-08-17T07:23:50;22.70;;;15.40;;
77880;SDS011;67077;50.298;18.996;2023-08-17T07:26:18;21.00;;;12.30;;
77880;SDS011;67077;50.298;18.996;2023-08-17T07:28:47;25.80;;;15.20;;
77880;SDS011;67077;50.298;18.996;2023-08-17T07:31:15;24.50;;;16.20;;
77880;SDS011;67077;50.298;18.996;2023-08-17T07:33:44;29.70;;;14.30;;
77880;SDS011;67077;50.298;18.996;2023-08-17T07:36:12;27.00;;;18.00;;
77880;SDS011;67077;50.298;18.996;2023-08-17T07:38:40;33.60;;;18.00;;
77880;SDS011;67077;50.298;18.996;2023-08-17T07:41:08;28.80;;;16.80;;
77880;SDS011;67077;50.298;18.996;2023-08-17T07:43:36;28.60;;;17.80;;
77880;SDS011;67077;50.298;18.996;2023-08-17T07:46:04;30.20;;;13.30;;
77880;SDS011;67077;50.298;18.996;2023-08-17T07:48:32;34.70;;;16.30;;
77880;SDS011;67077;50.298;18.996;2023-08-17T07:51:01;31.30;;;17.00;;
77880;SDS011;67077;50.298;18.996;2023-08-17T07:53:29;32.70;;;17.20;;
77880;SDS011;67077;50.298;18.996;2023-08-17T07:55:57;36.10;;;17.10;;
77880;SDS011;67077;50.298;18.996;2023-08-17T07:58:25;30.00;;;17.50;;
77880;SDS011;67077;50.298;18.996;2023-08-17T08:00:53;31.10;;;17.30;;
77880;SDS011;67077;50.298;18.996;2023-08-17T08:03:21;27.60;;;16.80;;
77880;SDS011;67077;50.298;18.996;2023-08-17T08:05:49;27.00;;;16.40;;
77880;SDS011;67077;50.298;18.996;2023-08-17T08:08:17;29.70;;;17.30;;
77880;SDS011;67077;50.298;18.996;2023-08-17T08:10:45;30.00;;;17.30;;
77880;SDS011;67077;50.298;18.996;2023-08-17T08:13:14;34.50;;;17.50;;
77880;SDS011;67077;50.298;18.996;2023-08-17T08:15:44;36.40;;;16.80;;
77880;SDS011;67077;50.298;18.996;2023-08-17T08:18:14;28.80;;;16.60;;
77880;SDS011;67077;50.298;18.996;2023-08-17T08:20:53;28.00;;;16.50;;
77880;SDS011;67077;50.298;18.996;2023-08-17T08:23:23;22.90;;;15.40;;
77880;SDS011;67077;50.298;18.996;2023-08-17T08:29:28;30.90;;;15.80;;
77880;SDS011;67077;50.298;18.996;2023-08-17T08:34:45;25.30;;;15.90;;
77880;SDS011;67077;50.298;18.996;2023-08-17T08:37:14;24.20;;;14.70;;
77880;SDS011;67077;50.298;18.996;2023-08-17T08:39:52;23.50;;;14.80;;
77880;SDS011;67077;50.298;18.996;2023-08-17T08:42:22;22.50;;;14.30;;
77880;SDS011;67077;50.298;18.996;2023-08-17T08:44:53;24.50;;;15.20;;
77880;SDS011;67077;50.298;18.996;2023-08-17T08:47:25;26.90;;;14.60;;
77880;SDS011;67077;50.298;18.996;2023-08-17T08:49:59;22.80;;;14.10;;
77880;SDS011;67077;50.298;18.996;2023-08-17T08:53:14;25.80;;;14.10;;
77880;SDS011;67077;50.298;18.996;2023-08-17T08:55:28;20.60;;;13.80;;
77880;SDS011;67077;50.298;18.996;2023-08-17T08:58:04;12.80;;;9.60;;
77880;SDS011;67077;50.298;18.996;2023-08-17T09:00:35;24.80;;;13.70;;
77880;SDS011;67077;50.298;18.996;2023-08-17T09:03:04;24.10;;;14.10;;
77880;SDS011;67077;50.298;18.996;2023-08-17T09:05:40;23.60;;;13.40;;
77880;SDS011;67077;50.298;18.996;2023-08-17T09:08:11;21.70;;;13.40;;
77880;SDS011;67077;50.298;18.996;2023-08-17T09:10:41;21.40;;;12.20;;
77880;SDS011;67077;50.298;18.996;2023-08-17T09:13:10;19.20;;;12.60;;
77880;SDS011;67077;50.298;18.996;2023-08-17T09:15:39;19.70;;;11.00;;
77880;SDS011;67077;50.298;18.996;2023-08-17T09:18:07;18.30;;;11.50;;
77880;SDS011;67077;50.298;18.996;2023-08-17T09:20:36;18.30;;;11.20;;
77880;SDS011;67077;50.298;18.996;2023-08-17T09:23:16;18.30;;;12.30;;
77880;SDS011;67077;50.298;18.996;2023-08-17T09:25:53;20.00;;;13.00;;
77880;SDS011;67077;50.298;18.996;2023-08-17T09:28:26;21.30;;;12.40;;
77880;SDS011;67077;50.298;18.996;2023-08-17T09:31:02;17.50;;;10.50;;
77880;SDS011;67077;50.298;18.996;2023-08-17T09:33:33;26.30;;;12.50;;
77880;SDS011;67077;50.298;18.996;2023-08-17T09:36:03;18.10;;;11.20;;
77880;SDS011;67077;50.298;18.996;2023-08-17T09:38:32;17.00;;;9.80;;
77880;SDS011;67077;50.298;18.996;2023-08-17T09:41:00;20.20;;;9.50;;
77880;SDS011;67077;50.298;18.996;2023-08-17T09:43:29;19.30;;;10.40;;
77880;SDS011;67077;50.298;18.996;2023-08-17T09:46:00;15.10;;;10.40;;
77880;SDS011;67077;50.298;18.996;2023-08-17T09:48:31;17.60;;;10.20;;
77880;SDS011;67077;50.298;18.996;2023-08-17T09:50:59;14.30;;;9.20;;
77880;SDS011;67077;50.298;18.996;2023-08-17T09:53:36;21.30;;;10.90;;
77880;SDS011;67077;50.298;18.996;2023-08-17T09:56:05;17.20;;;10.30;;
77880;SDS011;67077;50.298;18.996;2023-08-17T09:58:38;14.10;;;10.00;;
77880;SDS011;67077;50.298;18.996;2023-08-17T10:01:07;18.60;;;10.70;;
77880;SDS011;67077;50.298;18.996;2023-08-17T10:03:42;14.40;;;10.60;;
77880;SDS011;67077;50.298;18.996;2023-08-17T10:06:24;17.60;;;11.10;;
77880;SDS011;67077;50.298;18.996;2023-08-17T10:08:56;15.30;;;10.40;;
77880;SDS011;67077;50.298;18.996;2023-08-17T10:11:26;12.60;;;10.30;;
77880;SDS011;67077;50.298;18.996;2023-08-17T10:14:00;17.30;;;10.60;;
77880;SDS011;67077;50.298;18.996;2023-08-17T10:19:22;16.50;;;10.00;;
77880;SDS011;67077;50.298;18.996;2023-08-17T10:25:06;15.90;;;10.30;;
77880;SDS011;67077;50.298;18.996;2023-08-17T10:27:41;14.60;;;10.30;;
77880;SDS011;67077;50.298;18.996;2023-08-17T10:30:11;15.00;;;10.00;;
77880;SDS011;67077;50.298;18.996;2023-08-17T10:32:40;12.40;;;9.60;;
77880;SDS011;67077;50.298;18.996;2023-08-17T10:35:13;16.00;;;10.30;;
77880;SDS011;67077;50.298;18.996;2023-08-17T10:37:42;18.20;;;9.40;;
77880;SDS011;67077;50.298;18.996;2023-08-17T10:40:11;13.80;;;8.90;;
77880;SDS011;67077;50.298;18.996;2023-08-17T10:42:40;15.20;;;9.10;;
77880;SDS011;67077;50.298;18.996;2023-08-17T10:48:24;13.60;;;9.60;;
77880;SDS011;67077;50.298;18.996;2023-08-17T10:50:59;19.00;;;10.90;;
77880;SDS011;67077;50.298;18.996;2023-08-17T10:53:34;15.40;;;8.80;;
77880;SDS011;67077;50.298;18.996;2023-08-17T10:56:06;14.10;;;9.50;;
77880;SDS011;67077;50.298;18.996;2023-08-17T10:58:35;18.00;;;9.50;;
77880;SDS011;67077;50.298;18.996;2023-08-17T11:01:04;12.60;;;8.60;;
77880;SDS011;67077;50.298;18.996;2023-08-17T11:03:33;14.60;;;8.80;;
77880;SDS011;67077;50.298;18.996;2023-08-17T11:06:17;13.10;;;8.90;;
77880;SDS011;67077;50.298;18.996;2023-08-17T11:08:54;17.30;;;9.20;;
77880;SDS011;67077;50.298;18.996;2023-08-17T11:11:26;12.10;;;8.30;;
77880;SDS011;67077;50.298;18.996;2023-08-17T11:13:59;11.80;;;8.10;;
77880;SDS011;67077;50.298;18.996;2023-08-17T11:16:27;12.70;;;7.80;;
77880;SDS011;67077;50.298;18.996;2023-08-17T11:18:55;13.90;;;7.90;;
77880;SDS011;67077;50.298;18.996;2023-08-17T11:21:26;10.80;;;8.30;;
77880;SDS011;67077;50.298;18.996;2023-08-17T11:23:55;13.40;;;9.10;;
77880;SDS011;67077;50.298;18.996;2023-08-17T11:26:25;11.80;;;8.70;;
77880;SDS011;67077;50.298;18.996;2023-08-17T11:28:57;11.10;;;8.90;;
77880;SDS011;67077;50.298;18.996;2023-08-17T11:31:25;13.90;;;9.00;;
77880;SDS011;67077;50.298;18.996;2023-08-17T11:33:54;13.10;;;9.20;;
77880;SDS011;67077;50.298;18.996;2023-08-17T11:36:22;13.50;;;9.10;;
77880;SDS011;67077;50.298;18.996;2023-08-17T11:38:52;18.40;;;9.20;;
77880;SDS011;67077;50.298;18.996;2023-08-17T11:41:21;19.50;;;10.30;;
77880;SDS011;67077;50.298;18.996;2023-08-17T11:43:50;39.60;;;9.70;;
77880;SDS011;67077;50.298;18.996;2023-08-17T11:46:18;23.30;;;6.50;;
77880;SDS011;67077;50.298;18.996;2023-08-17T11:48:47;13.40;;;5.00;;
77880;SDS011;67077;50.298;18.996;2023-08-17T11:51:19;12.10;;;4.20;;
77880;SDS011;67077;50.298;18.996;2023-08-17T11:54:00;9.60;;;4.30;;
77880;SDS011;67077;50.298;18.996;2023-08-17T11:56:32;10.50;;;4.70;;
77880;SDS011;67077;50.298;18.996;2023-08-17T11:59:08;6.80;;;4.30;;
77880;SDS011;67077;50.298;18.996;2023-08-17T12:01:48;10.50;;;5.70;;
77880;SDS011;67077;50.298;18.996;2023-08-17T12:04:32;11.00;;;5.00;;
77880;SDS011;67077;50.298;18.996;2023-08-17T12:07:33;10.00;;;5.60;;
77880;SDS011;67077;50.298;18.996;2023-08-17T12:10:08;8.70;;;5.90;;
77880;SDS011;67077;50.298;18.996;2023-08-17T12:13:10;11.60;;;5.80;;
77880;SDS011;67077;50.298;18.996;2023-08-17T12:15:42;12.50;;;5.70;;
77880;SDS011;67077;50.298;18.996;2023-08-17T12:18:11;9.90;;;6.00;;
77880;SDS011;67077;50.298;18.996;2023-08-17T12:21:12;11.30;;;6.10;;
77880;SDS011;67077;50.298;18.996;2023-08-17T12:23:45;9.30;;;5.60;;
77880;SDS011;67077;50.298;18.996;2023-08-17T12:26:18;13.40;;;7.00;;
77880;SDS011;67077;50.298;18.996;2023-08-17T12:29:07;16.10;;;7.60;;
77880;SDS011;67077;50.298;18.996;2023-08-17T12:31:40;13.10;;;6.60;;
77880;SDS011;67077;50.298;18.996;2023-08-17T12:34:09;17.80;;;7.90;;
77880;SDS011;67077;50.298;18.996;2023-08-17T12:36:37;14.10;;;6.70;;
77880;SDS011;67077;50.298;18.996;2023-08-17T12:39:05;11.00;;;6.80;;
77880;SDS011;67077;50.298;18.996;2023-08-17T12:41:33;11.80;;;7.20;;
77880;SDS011;67077;50.298;18.996;2023-08-17T12:44:01;12.30;;;6.50;;
77880;SDS011;67077;50.298;18.996;2023-08-17T12:46:29;10.30;;;5.80;;
77880;SDS011;67077;50.298;18.996;2023-08-17T12:49:00;12.60;;;7.20;;
77880;SDS011;67077;50.298;18.996;2023-08-17T12:51:29;11.00;;;7.10;;
77880;SDS011;67077;50.298;18.996;2023-08-17T12:53:57;15.90;;;9.10;;
77880;SDS011;67077;50.298;18.996;2023-08-17T12:56:25;16.50;;;8.10;;
77880;SDS011;67077;50.298;18.996;2023-08-17T12:58:53;13.80;;;8.00;;
77880;SDS011;67077;50.298;18.996;2023-08-17T13:01:21;15.80;;;8.00;;
77880;SDS011;67077;50.298;18.996;2023-08-17T13:03:50;14.30;;;7.40;;
77880;SDS011;67077;50.298;18.996;2023-08-17T13:06:18;16.10;;;8.30;;
77880;SDS011;67077;50.298;18.996;2023-08-17T13:08:46;13.00;;;7.30;;
77880;SDS011;67077;50.298;18.996;2023-08-17T13:11:15;13.70;;;7.80;;
77880;SDS011;67077;50.298;18.996;2023-08-17T13:13:43;8.60;;;5.20;;
77880;SDS011;67077;50.298;18.996;2023-08-17T13:16:14;11.60;;;6.70;;
77880;SDS011;67077;50.298;18.996;2023-08-17T13:18:43;11.80;;;7.10;;
77880;SDS011;67077;50.298;18.996;2023-08-17T13:21:11;12.00;;;7.40;;
77880;SDS011;67077;50.298;18.996;2023-08-17T13:23:44;9.40;;;5.50;;
77880;SDS011;67077;50.298;18.996;2023-08-17T13:26:13;10.30;;;6.40;;
77880;SDS011;67077;50.298;18.996;2023-08-17T13:28:41;12.70;;;6.80;;
77880;SDS011;67077;50.298;18.996;2023-08-17T13:31:10;11.50;;;6.40;;
77880;SDS011;67077;50.298;18.996;2023-08-17T13:33:40;11.40;;;6.30;;
77880;SDS011;67077;50.298;18.996;2023-08-17T13:36:08;12.70;;;5.80;;
77880;SDS011;67077;50.298;18.996;2023-08-17T13:38:36;13.70;;;6.40;;
77880;SDS011;67077;50.298;18.996;2023-08-17T13:41:06;15.20;;;5.70;;
77880;SDS011;67077;50.298;18.996;2023-08-17T13:43:34;12.70;;;6.20;;
77880;SDS011;67077;50.298;18.996;2023-08-17T13:46:04;10.60;;;6.10;;
77880;SDS011;67077;50.298;18.996;2023-08-17T13:48:33;12.20;;;5.50;;
77880;SDS011;67077;50.298;18.996;2023-08-17T13:51:01;12.60;;;6.00;;
77880;SDS011;67077;50.298;18.996;2023-08-17T13:53:29;11.20;;;6.00;;
77880;SDS011;67077;50.298;18.996;2023-08-17T13:55:57;8.70;;;5.80;;
77880;SDS011;67077;50.298;18.996;2023-08-17T13:58:26;9.80;;;6.10;;
77880;SDS011;67077;50.298;18.996;2023-08-17T14:00:54;9.70;;;5.80;;
77880;SDS011;67077;50.298;18.996;2023-08-17T14:03:22;13.00;;;5.70;;
77880;SDS011;67077;50.298;18.996;2023-08-17T14:05:51;11.30;;;5.90;;
77880;SDS011;67077;50.298;18.996;2023-08-17T14:08:20;12.20;;;5.80;;
77880;SDS011;67077;50.298;18.996;2023-08-17T14:10:48;8.80;;;5.80;;
77880;SDS011;67077;50.298;18.996;2023-08-17T14:13:16;8.50;;;6.20;;
77880;SDS011;67077;50.298;18.996;2023-08-17T14:15:44;11.50;;;6.40;;
77880;SDS011;67077;50.298;18.996;2023-08-17T14:18:12;8.30;;;5.70;;
77880;SDS011;67077;50.298;18.996;2023-08-17T14:20:40;8.50;;;5.40;;
77880;SDS011;67077;50.298;18.996;2023-08-17T14:23:10;10.10;;;5.90;;
77880;SDS011;67077;50.298;18.996;2023-08-17T14:25:39;11.50;;;5.80;;
77880;SDS011;67077;50.298;18.996;2023-08-17T14:28:17;10.90;;;5.30;;
77880;SDS011;67077;50.298;18.996;2023-08-17T14:30:46;7.00;;;5.30;;
77880;SDS011;67077;50.298;18.996;2023-08-17T14:33:15;9.50;;;5.90;;
77880;SDS011;67077;50.298;18.996;2023-08-17T14:35:53;10.20;;;6.60;;
77880;SDS011;67077;50.298;18.996;2023-08-17T14:38:43;10.90;;;7.20;;
77880;SDS011;67077;50.298;18.996;2023-08-17T14:41:20;12.50;;;8.10;;
77880;SDS011;67077;50.298;18.996;2023-08-17T14:43:49;11.40;;;7.60;;
77880;SDS011;67077;50.298;18.996;2023-08-17T14:46:18;11.10;;;7.70;;
77880;SDS011;67077;50.298;18.996;2023-08-17T14:48:56;11.10;;;8.20;;
77880;SDS011;67077;50.298;18.996;2023-08-17T14:52:14;10.50;;;8.10;;
77880;SDS011;67077;50.298;18.996;2023-08-17T14:54:42;12.10;;;7.90;;
77880;SDS011;67077;50.298;18.996;2023-08-17T14:59:42;9.60;;;6.90;;